• Join FlightAware (Why Join?)
  • Login
  • US Flag 
Gobble Gobble! 
08:36AM EST


 

Airport Tracker/Info


-or-


 

Live Flight TrackerFlight Track Log ✈ SWA2278 ✈ 2013年 04月 12日 ✈ KHOU - KBNA

Flight Track Log - Related Links

Times and Time Zones

All times are in EDT time to prevent confusion due to time zone crossing. See the SWA2278 flight status page for this flight to view local times or setup timezone preferences in your user account.

Time Position Orientation Groundspeed Altitude Reporting Facility
EDT Latitude Longitude Course Direction KTS MPH feet Rate Location/Type
11:51AM 29.6583 -95.2647 North 175 201 800  Level Houston Center
11:52AM 29.7169 -95.2625 North 248 285 3,100 2,880 Climbing Houston Center
11:53AM 29.7719 -95.3111 323° Northwest 254 292 6,800 3,540 Climbing Houston Center
11:54AM 29.8467 -95.3261 350° North 281 323 10,300 2,100 Climbing Houston Center
11:55AM 29.9392 -95.2806 23° Northeast 333 383 11,600 1,920 Climbing Houston Center
11:56AM 30.0350 -95.2247 27° Northeast 376 433 14,700 2,460 Climbing Houston Center
11:57AM 30.1350 -95.1664 27° Northeast 394 453 16,800 2,160 Climbing Houston Center
11:58AM 30.2628 -95.0894 27° Northeast 423 487 19,200 2,220 Climbing Houston Center
11:59AM 30.3750 -95.0236 27° Northeast 443 510 21,400 1,920 Climbing Houston Center
12:00PM 30.4828 -94.9464 32° Northeast 447 514 23,200 1,500 Climbing Houston Center
12:01PM 30.5928 -94.8606 34° Northeast 467 537 24,600 1,440 Climbing Houston Center
12:02PM 30.7069 -94.7725 34° Northeast 484 557 26,200 1,200 Climbing Houston Center
12:03PM 30.8231 -94.6836 33° Northeast 496 571 27,100 1,140 Climbing Houston Center
12:04PM 30.9672 -94.5728 33° Northeast 517 595 28,600 1,440 Climbing Houston Center
12:05PM 31.0850 -94.4819 33° Northeast 512 589 30,100 1,320 Climbing Houston Center
12:06PM 31.2025 -94.3900 34° Northeast 513 590 31,400 1,080 Climbing Houston Center
12:07PM 31.3250 -94.2933 34° Northeast 520 598 32,400 780 Climbing Fort Worth Center
12:08PM 31.4439 -94.2017 33° Northeast 515 593 33,000 300 Climbing Fort Worth Center
12:09PM 31.5647 -94.1072 34° Northeast 515 593 33,000  Level Fort Worth Center
12:10PM 31.6833 -94.0175 33° Northeast 515 593 33,000  Level Fort Worth Center
12:11PM 31.7978 -93.9278 34° Northeast 510 587 33,000  Level Fort Worth Center
12:12PM 31.9142 -93.8353 34° Northeast 505 581 33,000  Level Fort Worth Center
12:13PM 32.0306 -93.7403 35° Northeast 505 581 33,000  Level Fort Worth Center
12:14PM 32.1486 -93.6472 34° Northeast 505 581 33,000  Level Fort Worth Center
12:15PM 32.2667 -93.5439 36° Northeast 510 587 33,000  Level Fort Worth Center
12:16PM 32.3847 -93.4503 34° Northeast 510 587 33,000  Level Fort Worth Center
12:17PM 32.5008 -93.3542 35° Northeast 510 587 33,000  Level Fort Worth Center
12:18PM 32.6228 -93.2597 33° Northeast 505 581 33,000  Level Fort Worth Center
12:19PM 32.7408 -93.1631 35° Northeast 511 588 33,000  Level Fort Worth Center
12:20PM 32.8586 -93.0708 33° Northeast 511 588 33,000  Level Fort Worth Center
12:21PM 32.9742 -92.9736 35° Northeast 511 588 33,000  Level Fort Worth Center
12:22PM 33.0900 -92.8811 34° Northeast 506 582 33,000  Level Fort Worth Center
12:24PM 33.3083 -92.6689 39° Northeast 505 581 33,000  Level Memphis Center
12:25PM 33.4003 -92.5319 51° Northeast 512 589 33,000  Level Memphis Center
12:26PM 33.4883 -92.3947 52° Northeast 522 601 33,000  Level Memphis Center
12:27PM 33.5781 -92.2547 52° Northeast 522 601 33,000  Level Memphis Center
12:28PM 33.6719 -92.1194 50° Northeast 527 606 33,000  Level Memphis Center
12:29PM 33.7614 -91.9839 52° Northeast 527 606 33,000  Level Memphis Center
12:30PM 33.8508 -91.8453 52° Northeast 522 601 33,000  Level Memphis Center
12:31PM 33.9467 -91.6867 54° Northeast 527 606 33,000  Level Memphis Center
12:32PM 34.0356 -91.5478 52° Northeast 527 606 33,000  Level Memphis Center
12:33PM 34.1286 -91.4061 52° Northeast 527 606 33,000  Level Memphis Center
12:34PM 34.2069 -91.2789 53° Northeast 527 606 33,000  Level Memphis Center
12:35PM 34.2975 -91.1392 52° Northeast 527 606 33,000  Level Memphis Center
12:36PM 34.3881 -90.9914 53° Northeast 527 606 33,000  Level Memphis Center
12:37PM 34.4786 -90.8508 52° Northeast 527 606 33,000  Level Memphis Center
12:38PM 34.5686 -90.7053 53° Northeast 527 606 33,000  Level Memphis Center
12:39PM 34.6589 -90.5567 54° Northeast 527 606 33,000  Level Memphis Center
12:40PM 34.7592 -90.3975 52° Northeast 532 612 33,000  Level Memphis Center
12:41PM 34.8486 -90.2483 54° Northeast 532 612 33,000  Level Memphis Center
12:42PM 34.9425 -90.1011 52° Northeast 547 629 33,000  Level Memphis Center
12:43PM 35.0297 -89.9489 55° Northeast 547 629 33,100  Climbing Memphis Center
12:44PM 35.0853 -89.7911 67° East 547 629 33,000 -60 Descending Memphis Center
12:45PM 35.1408 -89.6156 69° East 547 629 33,000  Level Memphis Center
12:46PM 35.1981 -89.4422 68° East 547 629 33,000  Level Memphis Center
12:47PM 35.2550 -89.2689 68° East 547 629 33,000  Level Memphis Center
12:48PM 35.3117 -89.0950 68° East 547 629 33,000  Level Memphis Center
12:49PM 35.3742 -88.9056 68° East 547 629 33,000 -120 Level Memphis Center
12:50PM 35.4264 -88.7314 70° East 547 629 32,800 -1,740 Descending Memphis Center
12:51PM 35.4844 -88.5544 68° East 547 629 29,600 -3,000 Descending Memphis Center
12:52PM 35.5422 -88.3822 68° East 547 629 26,900 -2,700 Descending Memphis Center
12:53PM 35.5958 -88.2150 68° East 540 621 24,300 -2,520 Descending Memphis Center
12:54PM 35.6453 -88.0603 68° East 509 586 21,900 -2,520 Descending Memphis Center
12:55PM 35.6922 -87.9056 69° East 488 562 19,300 -2,520 Descending Memphis Center
12:56PM 35.7392 -87.7558 69° East 467 537 16,900 -2,460 Descending Memphis Center
12:57PM 35.7819 -87.6139 70° East 450 518 14,400 -2,460 Descending Memphis Center
12:58PM 35.8269 -87.4792 68° East 438 504 12,000 -2,100 Descending Memphis Center
12:59PM 35.8719 -87.3547 66° East 416 479 10,300 -1,260 Descending Memphis Center
01:00PM 35.9047 -87.2433 70° East 377 434 9,500 -1,200 Descending Memphis Center
01:01PM 35.9269 -87.1322 76° East 331 381 8,000 -1,740 Descending Memphis Center
01:02PM 35.9492 -87.0261 75° East 319 367 6,100 -1,560 Descending Memphis Center
01:03PM 35.9694 -86.9281 76° East 307 353 4,900 -960 Descending Memphis Center
01:04PM 35.9858 -86.8478 76° East 288 331 4,200 -720 Descending Memphis Center
01:05PM 36.0022 -86.7675 76° East 252 290 3,500 -900 Descending Memphis Center
01:06PM 36.0217 -86.7178 64° Northeast 194 223 2,500 -1,020 Descending Memphis Center
01:07PM 36.0589 -86.7061 14° North 144 166 1,500 -900 Descending Memphis Center
01:08PM 36.1000 -86.6886 19° North 138 159 700 -840 Descending Memphis Center
01:14PM 36.1245 -86.6782 206° Southwest  Level Estimated
01:21PM 36.1245 -86.6782 206° Southwest  Level Estimated
01:22PM 36.1245 -86.6782 206° Southwest  Level Estimated
01:23PM 36.1245 -86.6782 206° Southwest  Level Estimated
01:24PM 36.1245 -86.6782 206° Southwest  Level Estimated
01:25PM 36.1245 -86.6782 206° Southwest  Level Estimated
01:26PM 36.1245 -86.6782 206° Southwest  Level Estimated
01:27PM 36.1245 -86.6782 206° Southwest  Level Estimated
01:28PM 36.1245 -86.6782 206° Southwest  Level Estimated
01:29PM 36.1245 -86.6782 206° Southwest  Level Estimated
01:30PM 36.1245 -86.6782 206° Southwest  Level Estimated